createdAt,value
2023-05-05T00:01:36.373Z,16.97
2023-05-05T00:04:02.701Z,16.87
2023-05-05T00:06:28.876Z,17.07
2023-05-05T00:08:55.453Z,16.26
2023-05-05T00:11:21.546Z,16.58
2023-05-05T00:13:47.924Z,16.83
2023-05-05T00:16:14.246Z,15.96
2023-05-05T00:18:40.320Z,16.79
2023-05-05T00:21:06.818Z,16.73
2023-05-05T00:23:32.947Z,16.74
2023-05-05T00:25:59.057Z,15.53
2023-05-05T00:28:25.142Z,16.32
2023-05-05T00:30:51.372Z,16.36
2023-05-05T00:33:17.502Z,15.41
2023-05-05T00:35:43.666Z,16.03
2023-05-05T00:38:09.834Z,16.42
2023-05-05T00:40:37.220Z,16.61
2023-05-05T00:43:03.372Z,16.56
2023-05-05T00:45:29.933Z,16.39
2023-05-05T00:48:00.161Z,16.41
2023-05-05T00:50:28.377Z,16.44
2023-05-05T00:52:57.075Z,16.05
2023-05-05T00:55:23.242Z,16.20
2023-05-05T00:57:49.471Z,16.27
2023-05-05T01:00:16.089Z,16.08
2023-05-05T01:02:42.262Z,16.30
2023-05-05T01:05:09.409Z,12.65
2023-05-05T01:07:44.091Z,16.30
2023-05-05T01:10:59.883Z,16.31
2023-05-05T01:13:54.570Z,16.23
2023-05-05T01:16:25.094Z,16.36
2023-05-05T01:19:21.687Z,16.30
2023-05-05T01:21:51.063Z,16.24
2023-05-05T01:24:38.547Z,16.04
2023-05-05T01:27:19.227Z,16.01
2023-05-05T01:29:51.160Z,16.00
2023-05-05T01:32:21.621Z,15.68
2023-05-05T01:34:58.086Z,15.98
2023-05-05T01:37:27.705Z,15.75
2023-05-05T01:39:57.113Z,16.11
2023-05-05T01:42:24.526Z,16.37
2023-05-05T01:44:51.770Z,16.01
2023-05-05T01:47:19.071Z,15.83
2023-05-05T01:49:46.759Z,15.55
2023-05-05T01:52:14.070Z,15.53
2023-05-05T01:54:42.215Z,15.02
2023-05-05T01:57:09.470Z,15.64
2023-05-05T01:59:37.566Z,15.98
2023-05-05T02:02:04.402Z,16.10
2023-05-05T02:04:32.419Z,16.05
2023-05-05T02:06:59.557Z,15.87
2023-05-05T02:09:28.397Z,16.09
2023-05-05T02:11:56.593Z,15.79
2023-05-05T02:14:23.042Z,15.21
2023-05-05T02:16:49.901Z,15.60
2023-05-05T02:19:16.540Z,15.60
2023-05-05T02:21:42.649Z,15.62
2023-05-05T02:24:08.803Z,15.59
2023-05-05T02:26:38.362Z,15.76
2023-05-05T02:29:10.399Z,15.62
2023-05-05T02:31:45.197Z,15.53
2023-05-05T02:34:13.078Z,15.04
2023-05-05T02:36:40.807Z,15.16
2023-05-05T02:39:12.180Z,15.38
2023-05-05T02:41:39.432Z,15.27
2023-05-05T02:44:06.129Z,15.05
2023-05-05T02:46:32.274Z,14.50
2023-05-05T02:48:59.057Z,15.43
2023-05-05T02:51:25.153Z,15.56
2023-05-05T02:53:51.894Z,15.34
2023-05-05T02:56:36.767Z,15.36
2023-05-05T02:59:16.604Z,15.49
2023-05-05T03:02:17.107Z,15.69
2023-05-05T03:05:04.301Z,15.42
2023-05-05T03:07:32.959Z,15.45
2023-05-05T03:10:06.886Z,15.47
2023-05-05T03:12:54.093Z,15.49
2023-05-05T03:15:28.635Z,15.53
2023-05-05T03:17:56.087Z,15.62
2023-05-05T03:20:22.385Z,14.11
2023-05-05T03:22:48.788Z,15.05
2023-05-05T03:25:14.905Z,15.31
2023-05-05T03:27:40.949Z,15.36
2023-05-05T03:30:07.997Z,15.40
2023-05-05T03:32:34.322Z,15.56
2023-05-05T03:35:00.575Z,15.24
2023-05-05T03:37:26.619Z,15.21
2023-05-05T03:39:52.699Z,15.01
2023-05-05T03:42:18.762Z,15.08
2023-05-05T03:44:44.896Z,14.14
2023-05-05T03:47:10.950Z,14.77
2023-05-05T03:49:37.286Z,15.07
2023-05-05T03:52:03.581Z,14.09
2023-05-05T03:54:30.510Z,14.66
2023-05-05T03:56:57.511Z,14.90
2023-05-05T03:59:23.560Z,15.08
2023-05-05T04:01:49.702Z,14.95
2023-05-05T04:04:15.955Z,15.29
2023-05-05T04:06:42.080Z,15.08
2023-05-05T04:09:08.200Z,15.25
2023-05-05T04:11:34.251Z,15.16
2023-05-05T04:14:00.328Z,15.27
2023-05-05T04:16:26.521Z,14.62
2023-05-05T04:18:52.673Z,14.65
2023-05-05T04:21:18.743Z,15.09
2023-05-05T04:23:44.888Z,15.29
2023-05-05T04:26:10.962Z,15.31
2023-05-05T04:28:37.019Z,15.23
2023-05-05T04:31:04.271Z,15.28
2023-05-05T04:33:30.348Z,15.19
2023-05-05T04:35:56.446Z,15.24
2023-05-05T04:38:22.543Z,15.29
2023-05-05T04:40:48.598Z,15.29
2023-05-05T04:43:14.849Z,15.30
2023-05-05T04:45:40.885Z,14.07
2023-05-05T04:48:06.981Z,15.54
2023-05-05T04:50:33.076Z,15.60
2023-05-05T04:52:59.206Z,15.35
2023-05-05T04:55:25.301Z,13.88
2023-05-05T04:57:51.385Z,15.47
2023-05-05T05:00:17.588Z,15.52
2023-05-05T05:02:43.823Z,15.27
2023-05-05T05:05:10.030Z,15.67
2023-05-05T05:07:36.117Z,15.87
2023-05-05T05:10:02.287Z,15.68
2023-05-05T05:12:28.328Z,15.54
2023-05-05T05:14:54.461Z,15.70
2023-05-05T05:17:21.774Z,15.79
2023-05-05T05:19:47.842Z,15.80
2023-05-05T05:22:13.962Z,16.07
2023-05-05T05:24:40.075Z,15.97
2023-05-05T05:27:10.010Z,16.50
2023-05-05T05:29:36.525Z,15.63
2023-05-05T05:32:02.902Z,15.48
2023-05-05T05:34:29.058Z,16.35
2023-05-05T05:36:55.108Z,16.35
2023-05-05T05:39:21.216Z,15.90
2023-05-05T05:41:47.288Z,16.45
2023-05-05T05:44:13.363Z,15.38
2023-05-05T05:46:39.519Z,15.36
2023-05-05T05:49:05.608Z,15.23
2023-05-05T05:51:31.706Z,16.13
2023-05-05T05:53:58.981Z,16.13
2023-05-05T05:56:25.196Z,16.33
2023-05-05T05:58:51.424Z,16.27
2023-05-05T06:01:17.767Z,16.44
2023-05-05T06:03:43.965Z,15.87
2023-05-05T06:06:10.159Z,15.78
2023-05-05T06:08:36.241Z,16.53
2023-05-05T06:11:02.335Z,16.93
2023-05-05T06:13:28.404Z,17.03
2023-05-05T06:15:54.538Z,17.16
2023-05-05T06:18:20.697Z,16.99
2023-05-05T06:20:50.343Z,15.44
2023-05-05T06:23:16.522Z,17.34
2023-05-05T06:25:42.640Z,15.99
2023-05-05T06:28:08.720Z,17.94
2023-05-05T06:30:34.865Z,17.72
2023-05-05T06:33:00.988Z,17.36
2023-05-05T06:35:27.145Z,17.66
2023-05-05T06:37:53.301Z,17.65
2023-05-05T06:40:19.374Z,18.12
2023-05-05T06:42:45.492Z,17.69
2023-05-05T06:45:12.023Z,17.66
2023-05-05T06:47:38.159Z,17.66
2023-05-05T06:50:05.884Z,17.53
2023-05-05T06:52:32.169Z,18.16
2023-05-05T06:54:58.371Z,17.96
2023-05-05T06:57:24.976Z,17.56
2023-05-05T06:59:51.246Z,17.60
2023-05-05T07:02:17.857Z,17.57
2023-05-05T07:04:43.951Z,17.49
2023-05-05T07:07:10.056Z,18.24
2023-05-05T07:09:36.116Z,18.12
2023-05-05T07:12:02.960Z,18.35
2023-05-05T07:14:29.038Z,17.86
2023-05-05T07:16:55.234Z,18.56
2023-05-05T07:19:21.593Z,18.51
2023-05-05T07:21:47.711Z,18.54
2023-05-05T07:24:13.773Z,18.77
2023-05-05T07:26:40.155Z,18.67
2023-05-05T07:29:06.458Z,18.52
2023-05-05T07:31:32.616Z,18.76
2023-05-05T07:33:58.771Z,18.34
2023-05-05T07:36:27.077Z,16.41
2023-05-05T07:38:53.290Z,18.53
2023-05-05T07:41:19.425Z,18.66
2023-05-05T07:43:45.627Z,19.05
2023-05-05T07:46:12.062Z,18.87
2023-05-05T07:48:40.473Z,18.61
2023-05-05T07:51:06.835Z,17.44
2023-05-05T07:53:32.932Z,18.99
2023-05-05T07:55:59.416Z,17.57
2023-05-05T07:58:25.519Z,19.10
2023-05-05T08:00:51.617Z,19.26
2023-05-05T08:03:19.931Z,18.82
2023-05-05T08:05:46.215Z,18.63
2023-05-05T08:08:12.272Z,18.61
2023-05-05T08:10:38.365Z,18.41
2023-05-05T08:13:04.637Z,18.84
2023-05-05T08:15:30.752Z,18.63
2023-05-05T08:17:56.875Z,19.16
2023-05-05T08:20:27.851Z,18.70
2023-05-05T08:22:53.936Z,18.97
2023-05-05T08:25:20.292Z,19.17
2023-05-05T08:27:46.344Z,18.97
2023-05-05T08:30:12.715Z,18.80
2023-05-05T08:32:39.044Z,15.12
2023-05-05T08:35:05.629Z,18.04
2023-05-05T08:37:31.832Z,18.73
2023-05-05T08:39:58.096Z,19.02
2023-05-05T08:42:36.247Z,19.06
2023-05-05T08:45:05.742Z,19.01
2023-05-05T08:47:32.321Z,18.02
2023-05-05T08:49:58.759Z,19.20
2023-05-05T08:52:29.108Z,18.92
2023-05-05T08:55:01.984Z,19.26
2023-05-05T08:57:32.366Z,19.55
2023-05-05T08:59:59.318Z,19.59
2023-05-05T09:02:27.762Z,19.17
2023-05-05T09:04:53.830Z,19.55
2023-05-05T09:07:20.259Z,19.49
2023-05-05T09:09:46.713Z,19.56
2023-05-05T09:12:13.052Z,19.04
2023-05-05T09:14:39.136Z,19.42
2023-05-05T09:17:05.375Z,20.52
2023-05-05T09:19:31.462Z,20.92
2023-05-05T09:21:57.617Z,20.33
2023-05-05T09:24:23.849Z,20.52
2023-05-05T09:26:49.944Z,20.84
2023-05-05T09:29:19.961Z,21.10
2023-05-05T09:32:07.454Z,20.77
2023-05-05T09:34:34.951Z,21.00
2023-05-05T09:37:01.125Z,20.89
2023-05-05T09:39:27.316Z,20.78
2023-05-05T09:41:53.489Z,20.70
2023-05-05T09:44:34.389Z,21.74
2023-05-05T09:47:00.585Z,21.98
2023-05-05T09:49:26.701Z,21.16
2023-05-05T09:51:53.762Z,21.37
2023-05-05T09:54:26.760Z,22.62
2023-05-05T09:56:53.805Z,22.39
2023-05-05T09:59:20.479Z,22.39
2023-05-05T10:01:48.085Z,22.06
2023-05-05T10:04:27.543Z,23.28
2023-05-05T10:06:57.682Z,23.23
2023-05-05T10:09:25.294Z,22.88
2023-05-05T10:11:52.072Z,23.63
2023-05-05T10:14:19.133Z,23.67
2023-05-05T10:16:52.573Z,23.66
2023-05-05T10:19:22.044Z,23.49
2023-05-05T10:21:52.900Z,22.58
2023-05-05T10:24:39.258Z,23.32
2023-05-05T10:27:25.592Z,23.50
2023-05-05T10:29:57.141Z,23.20
2023-05-05T10:32:57.332Z,23.14
2023-05-05T10:35:36.912Z,23.73
2023-05-05T10:38:03.192Z,23.50
2023-05-05T10:40:29.661Z,23.78
2023-05-05T10:42:55.785Z,22.35
2023-05-05T10:45:21.957Z,23.78
2023-05-05T10:47:48.995Z,23.37
2023-05-05T10:50:55.357Z,23.50
2023-05-05T10:53:23.492Z,23.69
2023-05-05T10:55:49.569Z,23.25
2023-05-05T10:58:36.583Z,23.20
2023-05-05T11:01:07.577Z,22.78
2023-05-05T11:03:33.909Z,22.54
2023-05-05T11:06:03.316Z,22.39
2023-05-05T11:08:36.051Z,21.65
2023-05-05T11:11:02.701Z,22.65
2023-05-05T11:13:29.112Z,22.67
2023-05-05T11:15:55.724Z,23.14
2023-05-05T11:18:35.502Z,22.15
2023-05-05T11:21:15.864Z,22.36
2023-05-05T11:23:46.077Z,22.81
2023-05-05T11:26:13.378Z,23.14
2023-05-05T11:28:59.412Z,23.61
2023-05-05T11:31:25.905Z,22.34
2023-05-05T11:33:52.391Z,23.44
2023-05-05T11:36:19.515Z,22.71
2023-05-05T11:39:08.312Z,23.23
2023-05-05T11:41:41.067Z,22.53
2023-05-05T11:44:17.993Z,22.63
2023-05-05T11:46:49.933Z,22.68
2023-05-05T11:49:26.448Z,22.55
2023-05-05T11:51:59.881Z,22.77
2023-05-05T11:54:26.748Z,22.32
2023-05-05T11:56:53.963Z,21.95
2023-05-05T11:59:20.305Z,21.71
2023-05-05T12:01:46.445Z,22.25
2023-05-05T12:04:14.153Z,19.32
2023-05-05T12:06:40.837Z,21.67
2023-05-05T12:09:14.317Z,20.83
2023-05-05T12:11:53.431Z,20.09
2023-05-05T12:14:20.218Z,19.57
2023-05-05T12:17:10.264Z,19.95
2023-05-05T12:19:36.439Z,21.05
2023-05-05T12:22:03.709Z,20.72
2023-05-05T12:24:30.307Z,18.79
2023-05-05T12:27:10.155Z,19.68
2023-05-05T12:29:36.520Z,21.46
2023-05-05T12:32:03.361Z,21.28
2023-05-05T12:34:30.636Z,20.65
2023-05-05T12:36:57.051Z,21.30
2023-05-05T12:39:23.192Z,21.38
2023-05-05T12:41:49.306Z,20.21
2023-05-05T12:44:15.419Z,21.03
2023-05-05T12:46:45.789Z,20.20
2023-05-05T12:49:11.870Z,21.20
2023-05-05T12:51:38.394Z,21.04
2023-05-05T12:54:11.383Z,21.43
2023-05-05T12:56:39.743Z,21.18
2023-05-05T12:59:10.247Z,20.95
2023-05-05T13:01:56.384Z,20.90
2023-05-05T13:04:24.029Z,20.86
2023-05-05T13:07:07.886Z,20.63
2023-05-05T13:09:34.056Z,20.95
2023-05-05T13:12:02.418Z,21.04
2023-05-05T13:14:30.125Z,20.35
2023-05-05T13:16:56.242Z,21.32
2023-05-05T13:19:24.282Z,21.15
2023-05-05T13:21:57.221Z,21.19
2023-05-05T13:24:34.404Z,21.21
2023-05-05T13:27:08.863Z,21.15
2023-05-05T13:29:35.025Z,21.11
2023-05-05T13:32:01.197Z,21.33
2023-05-05T13:34:27.527Z,21.23
2023-05-05T13:36:53.675Z,21.02
2023-05-05T13:39:19.752Z,21.26
2023-05-05T13:41:45.989Z,21.12
2023-05-05T13:44:13.142Z,20.96
2023-05-05T13:46:40.570Z,21.25
2023-05-05T13:49:06.752Z,20.87
2023-05-05T13:51:33.938Z,21.60
2023-05-05T13:54:00.056Z,21.11
2023-05-05T13:56:27.081Z,21.93
2023-05-05T13:58:53.612Z,21.91
2023-05-05T14:01:19.796Z,21.99
2023-05-05T14:03:45.975Z,22.77
2023-05-05T14:06:12.076Z,22.56
2023-05-05T14:08:38.261Z,21.94
2023-05-05T14:11:04.462Z,22.94
2023-05-05T14:13:30.639Z,22.82
2023-05-05T14:15:57.703Z,21.60
2023-05-05T14:18:24.928Z,22.05
2023-05-05T14:20:51.049Z,21.67
2023-05-05T14:23:17.160Z,22.36
2023-05-05T14:25:43.266Z,21.90
2023-05-05T14:28:09.328Z,21.68
2023-05-05T14:30:35.497Z,22.30
2023-05-05T14:33:01.787Z,21.61
2023-05-05T14:35:27.937Z,21.69
2023-05-05T14:37:54.011Z,20.80
2023-05-05T14:40:20.199Z,21.74
2023-05-05T14:42:46.266Z,22.04
2023-05-05T14:45:12.349Z,21.35
2023-05-05T14:47:38.459Z,21.46
2023-05-05T14:50:08.035Z,21.73
2023-05-05T14:52:34.224Z,21.54
2023-05-05T14:55:00.419Z,21.90
2023-05-05T14:57:26.556Z,20.97
2023-05-05T14:59:52.764Z,21.54
2023-05-05T15:02:18.884Z,21.32
2023-05-05T15:04:45.143Z,21.77
2023-05-05T15:07:11.276Z,21.91
2023-05-05T15:09:37.493Z,21.83
2023-05-05T15:12:03.892Z,21.53
2023-05-05T15:14:30.053Z,21.22
2023-05-05T15:16:56.447Z,20.96
2023-05-05T15:19:22.598Z,21.06
2023-05-05T15:21:52.474Z,20.49
2023-05-05T15:24:19.493Z,20.33
2023-05-05T15:26:45.605Z,20.21
2023-05-05T15:29:11.679Z,18.84
2023-05-05T15:31:37.916Z,19.58
2023-05-05T15:34:04.012Z,19.64
2023-05-05T15:36:31.538Z,19.72
2023-05-05T15:38:57.652Z,19.48
2023-05-05T15:41:26.419Z,17.16
2023-05-05T15:43:52.571Z,19.55
2023-05-05T15:46:18.713Z,18.86
2023-05-05T15:48:44.900Z,18.48
2023-05-05T15:51:11.781Z,19.31
2023-05-05T15:53:37.972Z,19.51
2023-05-05T15:56:04.271Z,18.89
2023-05-05T15:58:30.486Z,17.73
2023-05-05T16:00:56.550Z,18.93
2023-05-05T16:03:22.792Z,19.67
2023-05-05T16:05:48.920Z,19.81
2023-05-05T16:08:15.012Z,19.95
2023-05-05T16:10:41.168Z,20.22
2023-05-05T16:13:07.283Z,20.07
2023-05-05T16:15:34.519Z,19.95
2023-05-05T16:18:00.738Z,19.70
2023-05-05T16:20:26.844Z,18.78
2023-05-05T16:22:52.907Z,19.60
2023-05-05T16:25:19.351Z,19.97
2023-05-05T16:27:45.533Z,20.10
2023-05-05T16:30:14.521Z,19.56
2023-05-05T16:32:41.203Z,19.38
2023-05-05T16:35:08.423Z,19.98
2023-05-05T16:37:34.704Z,19.93
2023-05-05T16:40:01.345Z,19.05
2023-05-05T16:42:27.415Z,20.22
2023-05-05T16:44:53.480Z,20.30
2023-05-05T16:47:19.618Z,20.23
2023-05-05T16:49:45.856Z,20.27
2023-05-05T16:52:11.953Z,19.53
2023-05-05T16:54:38.038Z,19.89
2023-05-05T16:57:04.279Z,19.93
2023-05-05T16:59:31.617Z,19.86
2023-05-05T17:01:57.883Z,20.12
2023-05-05T17:04:24.048Z,19.92
2023-05-05T17:06:50.251Z,20.06
2023-05-05T17:09:16.323Z,20.22
2023-05-05T17:11:42.465Z,20.08
2023-05-05T17:14:08.680Z,19.95
2023-05-05T17:16:34.909Z,20.05
2023-05-05T17:19:00.982Z,20.05
2023-05-05T17:21:27.301Z,20.18
2023-05-05T17:23:53.392Z,20.04
2023-05-05T17:26:19.504Z,19.62
2023-05-05T17:28:45.699Z,19.80
2023-05-05T17:31:11.858Z,19.74
2023-05-05T17:33:37.902Z,20.08
2023-05-05T17:36:04.304Z,19.00
2023-05-05T17:38:30.368Z,20.40
2023-05-05T17:40:56.420Z,20.26
2023-05-05T17:43:22.547Z,20.12
2023-05-05T17:45:48.696Z,20.16
2023-05-05T17:48:14.841Z,19.91
2023-05-05T17:50:43.108Z,19.50
2023-05-05T17:53:09.952Z,19.76
2023-05-05T17:55:36.028Z,19.86
2023-05-05T17:58:02.099Z,19.69
2023-05-05T18:00:28.175Z,19.88
2023-05-05T18:02:54.313Z,19.89
2023-05-05T18:05:20.532Z,18.80
2023-05-05T18:07:46.637Z,19.22
2023-05-05T18:10:12.729Z,19.35
2023-05-05T18:12:38.913Z,19.90
2023-05-05T18:15:05.668Z,19.62
2023-05-05T18:17:31.794Z,19.78
2023-05-05T18:19:57.840Z,19.81
2023-05-05T18:22:23.903Z,19.82
2023-05-05T18:24:50.083Z,19.48
2023-05-05T18:27:16.176Z,19.68
2023-05-05T18:29:42.304Z,19.66
2023-05-05T18:32:08.378Z,19.75
2023-05-05T18:34:34.483Z,18.96
2023-05-05T18:37:00.646Z,19.42
2023-05-05T18:39:26.803Z,19.11
2023-05-05T18:41:52.876Z,19.59
2023-05-05T18:44:19.451Z,17.91
2023-05-05T18:46:46.315Z,18.43
2023-05-05T18:49:12.714Z,19.35
2023-05-05T18:51:38.918Z,19.34
2023-05-05T18:54:05.316Z,17.79
2023-05-05T18:56:31.507Z,18.57
2023-05-05T18:58:57.587Z,19.08
2023-05-05T19:01:23.867Z,17.27
2023-05-05T19:03:50.208Z,19.29
2023-05-05T19:06:16.664Z,19.27
2023-05-05T19:08:43.377Z,18.12
2023-05-05T19:11:09.536Z,19.58
2023-05-05T19:13:35.611Z,19.56
2023-05-05T19:16:01.752Z,19.17
2023-05-05T19:18:27.892Z,18.84
2023-05-05T19:20:53.945Z,18.66
2023-05-05T19:23:20.021Z,18.71
2023-05-05T19:25:46.194Z,18.07
2023-05-05T19:28:12.551Z,18.85
2023-05-05T19:30:38.668Z,18.83
2023-05-05T19:33:04.988Z,19.15
2023-05-05T19:35:31.077Z,19.18
2023-05-05T19:37:57.196Z,19.25
2023-05-05T19:40:23.536Z,19.09
2023-05-05T19:42:49.617Z,18.94
2023-05-05T19:45:15.750Z,18.96
2023-05-05T19:47:42.014Z,18.75
2023-05-05T19:50:08.589Z,18.61
2023-05-05T19:52:36.041Z,18.71
2023-05-05T19:55:02.432Z,18.19
2023-05-05T19:57:28.735Z,17.90
2023-05-05T19:59:54.832Z,18.36
2023-05-05T20:02:23.318Z,18.31
2023-05-05T20:04:49.442Z,18.49
2023-05-05T20:07:17.124Z,17.59
2023-05-05T20:09:43.379Z,18.03
2023-05-05T20:12:10.128Z,17.67
2023-05-05T20:14:36.187Z,17.89
2023-05-05T20:17:02.439Z,17.95
2023-05-05T20:19:28.523Z,18.05
2023-05-05T20:21:54.614Z,17.63
2023-05-05T20:24:20.755Z,18.00
2023-05-05T20:26:46.854Z,18.12
2023-05-05T20:29:14.419Z,18.08
2023-05-05T20:31:40.579Z,17.23
2023-05-05T20:34:06.772Z,14.85
2023-05-05T20:36:32.827Z,18.12
2023-05-05T20:38:58.884Z,18.39
2023-05-05T20:41:25.043Z,17.96
2023-05-05T20:43:51.100Z,18.37
2023-05-05T20:46:17.263Z,17.85
2023-05-05T20:48:43.580Z,17.36
2023-05-05T20:51:09.704Z,17.79
2023-05-05T20:53:35.795Z,16.66
2023-05-05T20:56:01.891Z,17.45
2023-05-05T20:58:28.853Z,17.82
2023-05-05T21:00:55.036Z,18.26
2023-05-05T21:03:21.149Z,18.07
2023-05-05T21:05:47.248Z,17.90
2023-05-05T21:08:13.335Z,18.26
2023-05-05T21:10:39.425Z,17.97
2023-05-05T21:13:05.684Z,18.19
2023-05-05T21:15:31.839Z,18.16
2023-05-05T21:17:58.009Z,18.26
2023-05-05T21:20:24.124Z,18.20
2023-05-05T21:22:50.296Z,18.43
2023-05-05T21:25:17.923Z,18.22
2023-05-05T21:27:45.488Z,18.45
2023-05-05T21:30:11.835Z,18.45
2023-05-05T21:32:39.172Z,18.25
2023-05-05T21:35:06.477Z,18.28
2023-05-05T21:37:32.591Z,18.31
2023-05-05T21:39:58.681Z,18.25
2023-05-05T21:42:25.411Z,16.85
2023-05-05T21:44:51.603Z,18.43
2023-05-05T21:47:17.734Z,18.20
2023-05-05T21:49:43.832Z,18.18
2023-05-05T21:52:10.129Z,18.51
2023-05-05T21:54:36.223Z,18.05
2023-05-05T21:57:02.296Z,18.19
2023-05-05T21:59:28.327Z,18.15
2023-05-05T22:01:54.511Z,18.15
2023-05-05T22:04:20.712Z,17.77
2023-05-05T22:06:46.768Z,18.26
2023-05-05T22:09:12.905Z,18.18
2023-05-05T22:11:38.979Z,17.86
2023-05-05T22:14:05.053Z,17.78
2023-05-05T22:16:31.137Z,17.93
2023-05-05T22:18:57.209Z,17.77
2023-05-05T22:21:23.335Z,18.03
2023-05-05T22:23:49.464Z,17.74
2023-05-05T22:26:15.548Z,18.06
2023-05-05T22:28:41.645Z,18.28
2023-05-05T22:31:07.751Z,18.11
2023-05-05T22:33:35.306Z,18.14
2023-05-05T22:36:01.468Z,16.94
2023-05-05T22:38:27.523Z,17.86
2023-05-05T22:40:53.617Z,17.91
2023-05-05T22:43:19.866Z,17.66
2023-05-05T22:45:46.013Z,17.76
2023-05-05T22:48:12.132Z,18.09
2023-05-05T22:50:38.277Z,16.56
2023-05-05T22:53:04.337Z,17.97
2023-05-05T22:55:30.429Z,17.13
2023-05-05T22:57:56.487Z,17.33
2023-05-05T23:00:22.916Z,16.85
2023-05-05T23:02:49.141Z,16.55
2023-05-05T23:05:15.373Z,17.57
2023-05-05T23:07:41.426Z,17.41
2023-05-05T23:10:07.871Z,16.35
2023-05-05T23:12:34.027Z,17.10
2023-05-05T23:15:00.292Z,16.85
2023-05-05T23:17:34.279Z,17.04
2023-05-05T23:20:01.789Z,16.71
2023-05-05T23:22:27.850Z,16.35
2023-05-05T23:24:53.933Z,16.86
2023-05-05T23:27:19.992Z,16.85
2023-05-05T23:29:46.073Z,16.70
2023-05-05T23:32:12.125Z,16.65
2023-05-05T23:34:38.215Z,16.72
2023-05-05T23:37:06.241Z,15.60
2023-05-05T23:39:33.801Z,16.89
2023-05-05T23:41:59.898Z,16.86
2023-05-05T23:44:26.938Z,16.54
2023-05-05T23:46:53.016Z,16.53
2023-05-05T23:49:19.124Z,16.97
2023-05-05T23:51:45.181Z,16.93
2023-05-05T23:54:11.254Z,16.79
2023-05-05T23:56:37.400Z,16.90
2023-05-05T23:59:04.647Z,16.58
